sensor_id;sensor_type;location;lat;lon;timestamp;pressure;altitude;pressure_sealevel;temperature;humidity
48624;BME280;34422;45.802;16.114;2023-05-10T00:02:16;100220.34;;;9.26;100.00
48624;BME280;34422;45.802;16.114;2023-05-10T00:04:42;100239.91;;;9.41;100.00
48624;BME280;34422;45.802;16.114;2023-05-10T00:07:09;100233.88;;;9.39;100.00
48624;BME280;34422;45.802;16.114;2023-05-10T00:09:36;100239.47;;;9.44;100.00
48624;BME280;34422;45.802;16.114;2023-05-10T00:12:03;100233.25;;;9.50;100.00
48624;BME280;34422;45.802;16.114;2023-05-10T00:14:30;100238.25;;;9.53;100.00
48624;BME280;34422;45.802;16.114;2023-05-10T00:16:57;100234.91;;;9.51;100.00
48624;BME280;34422;45.802;16.114;2023-05-10T00:19:23;100227.44;;;9.53;100.00
48624;BME280;34422;45.802;16.114;2023-05-10T00:21:50;100231.59;;;9.62;100.00
48624;BME280;34422;45.802;16.114;2023-05-10T00:24:17;100224.09;;;9.71;100.00
48624;BME280;34422;45.802;16.114;2023-05-10T00:26:44;100224.53;;;9.75;100.00
48624;BME280;34422;45.802;16.114;2023-05-10T00:29:11;100221.19;;;9.73;100.00
48624;BME280;34422;45.802;16.114;2023-05-10T00:31:37;100214.97;;;9.66;100.00
48624;BME280;34422;45.802;16.114;2023-05-10T00:34:04;100214.97;;;9.59;100.00
48624;BME280;34422;45.802;16.114;2023-05-10T00:36:31;100214.34;;;9.63;100.00
48624;BME280;34422;45.802;16.114;2023-05-10T00:38:58;100215.38;;;9.62;100.00
48624;BME280;34422;45.802;16.114;2023-05-10T00:41:25;100208.31;;;9.68;100.00
48624;BME280;34422;45.802;16.114;2023-05-10T00:43:52;100202.09;;;9.68;100.00
48624;BME280;34422;45.802;16.114;2023-05-10T00:46:19;100194.19;;;9.73;100.00
48624;BME280;34422;45.802;16.114;2023-05-10T00:48:46;100194.00;;;9.68;100.00
48624;BME280;34422;45.802;16.114;2023-05-10T00:51:13;100197.94;;;9.65;100.00
48624;BME280;34422;45.802;16.114;2023-05-10T00:53:40;100188.78;;;9.73;100.00
48624;BME280;34422;45.802;16.114;2023-05-10T00:56:07;100194.19;;;9.73;100.00
48624;BME280;34422;45.802;16.114;2023-05-10T00:58:34;100179.63;;;9.74;100.00
48624;BME280;34422;45.802;16.114;2023-05-10T01:01:01;100178.38;;;9.83;100.00
48624;BME280;34422;45.802;16.114;2023-05-10T01:03:28;100174.22;;;9.80;100.00
48624;BME280;34422;45.802;16.114;2023-05-10T01:05:55;100181.50;;;9.73;100.00
48624;BME280;34422;45.802;16.114;2023-05-10T01:08:22;100171.53;;;9.74;100.00
48624;BME280;34422;45.802;16.114;2023-05-10T01:10:49;100175.47;;;9.78;100.00
48624;BME280;34422;45.802;16.114;2023-05-10T01:13:46;100168.41;;;9.77;100.00
48624;BME280;34422;45.802;16.114;2023-05-10T01:16:16;100171.31;;;9.82;100.00
48624;BME280;34422;45.802;16.114;2023-05-10T01:18:44;100169.66;;;9.81;100.00
48624;BME280;34422;45.802;16.114;2023-05-10T01:21:22;100166.53;;;9.97;100.00
48624;BME280;34422;45.802;16.114;2023-05-10T01:32:32;100159.22;;;10.11;100.00
48624;BME280;34422;45.802;16.114;2023-05-10T01:35:17;100164.16;;;10.14;100.00
48624;BME280;34422;45.802;16.114;2023-05-10T01:40:36;100162.91;;;10.16;100.00
48624;BME280;34422;45.802;16.114;2023-05-10T01:43:08;100152.09;;;10.16;100.00
48624;BME280;34422;45.802;16.114;2023-05-10T01:45:41;100146.09;;;10.21;100.00
48624;BME280;34422;45.802;16.114;2023-05-10T01:48:14;100146.31;;;10.19;100.00
48624;BME280;34422;45.802;16.114;2023-05-10T01:50:45;100144.84;;;10.23;100.00
48624;BME280;34422;45.802;16.114;2023-05-10T01:53:16;100132.53;;;10.27;100.00
48624;BME280;34422;45.802;16.114;2023-05-10T01:55:47;100130.88;;;10.26;100.00
48624;BME280;34422;45.802;16.114;2023-05-10T01:58:20;100126.72;;;10.30;100.00
48624;BME280;34422;45.802;16.114;2023-05-10T02:00:49;100124.63;;;10.32;100.00
48624;BME280;34422;45.802;16.114;2023-05-10T02:03:18;100122.97;;;10.31;100.00
48624;BME280;34422;45.802;16.114;2023-05-10T02:05:48;100124.81;;;10.38;100.00
48624;BME280;34422;45.802;16.114;2023-05-10T02:08:17;100120.00;;;10.40;100.00
48624;BME280;34422;45.802;16.114;2023-05-10T02:10:45;100107.97;;;10.36;100.00
48624;BME280;34422;45.802;16.114;2023-05-10T02:13:13;100105.44;;;10.41;100.00
48624;BME280;34422;45.802;16.114;2023-05-10T02:15:42;100116.88;;;10.43;100.00
48624;BME280;34422;45.802;16.114;2023-05-10T02:18:10;100101.69;;;10.42;100.00
48624;BME280;34422;45.802;16.114;2023-05-10T02:20:38;100105.00;;;10.44;100.00
48624;BME280;34422;45.802;16.114;2023-05-10T02:23:07;100107.28;;;10.47;100.00
48624;BME280;34422;45.802;16.114;2023-05-10T02:25:35;100111.66;;;10.48;100.00
48624;BME280;34422;45.802;16.114;2023-05-10T02:28:03;100103.72;;;10.53;100.00
48624;BME280;34422;45.802;16.114;2023-05-10T02:30:32;100103.72;;;10.53;100.00
48624;BME280;34422;45.802;16.114;2023-05-10T02:33:01;100096.25;;;10.48;100.00
48624;BME280;34422;45.802;16.114;2023-05-10T02:35:29;100103.13;;;10.51;100.00
48624;BME280;34422;45.802;16.114;2023-05-10T02:37:58;100096.47;;;10.47;100.00
48624;BME280;34422;45.802;16.114;2023-05-10T02:40:27;100091.69;;;10.49;100.00
48624;BME280;34422;45.802;16.114;2023-05-10T02:42:56;100095.00;;;10.51;100.00
48624;BME280;34422;45.802;16.114;2023-05-10T02:45:27;100094.13;;;10.57;100.00
48624;BME280;34422;45.802;16.114;2023-05-10T02:47:56;100095.78;;;10.58;100.00
48624;BME280;34422;45.802;16.114;2023-05-10T02:50:26;100095.34;;;10.61;100.00
48624;BME280;34422;45.802;16.114;2023-05-10T02:52:57;100092.22;;;10.64;100.00
48624;BME280;34422;45.802;16.114;2023-05-10T02:55:32;100094.47;;;10.67;100.00
48624;BME280;34422;45.802;16.114;2023-05-10T02:58:00;100089.06;;;10.67;100.00
48624;BME280;34422;45.802;16.114;2023-05-10T03:00:28;100081.56;;;10.69;100.00
48624;BME280;34422;45.802;16.114;2023-05-10T03:02:55;100086.53;;;10.72;100.00
48624;BME280;34422;45.802;16.114;2023-05-10T03:05:22;100090.63;;;10.81;100.00
48624;BME280;34422;45.802;16.114;2023-05-10T03:07:49;100093.34;;;10.81;100.00
48624;BME280;34422;45.802;16.114;2023-05-10T03:10:17;100092.13;;;10.77;100.00
48624;BME280;34422;45.802;16.114;2023-05-10T03:13:07;100092.28;;;10.82;100.00
48624;BME280;34422;45.802;16.114;2023-05-10T03:15:57;100087.34;;;10.79;100.00
48624;BME280;34422;45.802;16.114;2023-05-10T03:21:03;100089.38;;;10.84;100.00
48624;BME280;34422;45.802;16.114;2023-05-10T03:23:38;100091.09;;;10.78;100.00
48624;BME280;34422;45.802;16.114;2023-05-10T03:26:07;100087.50;;;10.84;100.00
48624;BME280;34422;45.802;16.114;2023-05-10T03:28:35;100090.22;;;10.84;100.00
48624;BME280;34422;45.802;16.114;2023-05-10T03:31:04;100087.94;;;10.81;100.00
48624;BME280;34422;45.802;16.114;2023-05-10T03:33:31;100093.34;;;10.81;100.00
48624;BME280;34422;45.802;16.114;2023-05-10T03:35:59;100086.88;;;10.82;100.00
48624;BME280;34422;45.802;16.114;2023-05-10T03:38:25;100091.03;;;10.85;100.00
48624;BME280;34422;45.802;16.114;2023-05-10T03:40:52;100084.34;;;10.87;100.00
48624;BME280;34422;45.802;16.114;2023-05-10T03:43:19;100101.84;;;10.91;100.00
48624;BME280;34422;45.802;16.114;2023-05-10T03:45:46;100097.84;;;10.94;100.00
48624;BME280;34422;45.802;16.114;2023-05-10T03:48:13;100095.09;;;11.00;100.00
48624;BME280;34422;45.802;16.114;2023-05-10T03:50:40;100091.16;;;10.96;100.00
48624;BME280;34422;45.802;16.114;2023-05-10T03:53:06;100090.94;;;10.98;100.00
48624;BME280;34422;45.802;16.114;2023-05-10T03:55:33;100091.34;;;11.01;100.00
48624;BME280;34422;45.802;16.114;2023-05-10T03:58:02;100093.88;;;10.96;100.00
48624;BME280;34422;45.802;16.114;2023-05-10T04:00:29;100094.69;;;10.97;100.00
48624;BME280;34422;45.802;16.114;2023-05-10T04:02:56;100104.16;;;11.13;100.00
48624;BME280;34422;45.802;16.114;2023-05-10T04:05:23;100103.97;;;11.08;100.00
48624;BME280;34422;45.802;16.114;2023-05-10T04:07:50;100099.97;;;11.17;100.00
48624;BME280;34422;45.802;16.114;2023-05-10T04:10:17;100104.34;;;11.18;100.00
48624;BME280;34422;45.802;16.114;2023-05-10T04:12:44;100107.81;;;11.25;100.00
48624;BME280;34422;45.802;16.114;2023-05-10T04:15:11;100105.72;;;11.27;100.00
48624;BME280;34422;45.802;16.114;2023-05-10T04:17:38;100106.56;;;11.27;100.00
48624;BME280;34422;45.802;16.114;2023-05-10T04:20:05;100101.53;;;11.31;100.00
48624;BME280;34422;45.802;16.114;2023-05-10T04:22:33;100104.25;;;11.49;100.00
48624;BME280;34422;45.802;16.114;2023-05-10T04:24:59;100103.81;;;11.52;100.00
48624;BME280;34422;45.802;16.114;2023-05-10T04:27:26;100109.69;;;11.49;100.00
48624;BME280;34422;45.802;16.114;2023-05-10T04:29:53;100112.16;;;11.51;100.00
48624;BME280;34422;45.802;16.114;2023-05-10T04:32:20;100110.91;;;11.53;100.00
48624;BME280;34422;45.802;16.114;2023-05-10T04:34:47;100113.78;;;11.58;100.00
48624;BME280;34422;45.802;16.114;2023-05-10T04:37:14;100099.63;;;11.56;100.00
48624;BME280;34422;45.802;16.114;2023-05-10T04:39:41;100111.00;;;11.65;100.00
48624;BME280;34422;45.802;16.114;2023-05-10T04:42:08;100113.22;;;11.74;100.00
48624;BME280;34422;45.802;16.114;2023-05-10T04:44:35;100115.50;;;11.78;100.00
48624;BME280;34422;45.802;16.114;2023-05-10T04:47:02;100117.63;;;11.94;100.00
48624;BME280;34422;45.802;16.114;2023-05-10T04:49:29;100119.28;;;11.95;100.00
48624;BME280;34422;45.802;16.114;2023-05-10T04:51:56;100121.38;;;11.93;100.00
48624;BME280;34422;45.802;16.114;2023-05-10T04:54:23;100118.84;;;11.98;100.00
48624;BME280;34422;45.802;16.114;2023-05-10T04:56:50;100126.97;;;12.16;100.00
48624;BME280;34422;45.802;16.114;2023-05-10T04:59:17;100124.56;;;12.08;100.00
48624;BME280;34422;45.802;16.114;2023-05-10T05:01:44;100123.66;;;12.14;100.00
48624;BME280;34422;45.802;16.114;2023-05-10T05:04:10;100125.69;;;12.19;100.00
48624;BME280;34422;45.802;16.114;2023-05-10T05:06:37;100130.06;;;12.01;100.00
48624;BME280;34422;45.802;16.114;2023-05-10T05:09:04;100130.88;;;12.38;100.00
48624;BME280;34422;45.802;16.114;2023-05-10T05:11:31;100131.09;;;12.55;100.00
48624;BME280;34422;45.802;16.114;2023-05-10T05:13:58;100125.13;;;12.46;100.00
48624;BME280;34422;45.802;16.114;2023-05-10T05:16:25;100129.66;;;12.34;100.00
48624;BME280;34422;45.802;16.114;2023-05-10T05:18:52;100129.50;;;12.48;100.00
48624;BME280;34422;45.802;16.114;2023-05-10T05:21:19;100123.47;;;12.45;100.00
48624;BME280;34422;45.802;16.114;2023-05-10T05:23:47;100127.78;;;12.53;100.00
48624;BME280;34422;45.802;16.114;2023-05-10T05:26:13;100122.13;;;12.36;100.00
48624;BME280;34422;45.802;16.114;2023-05-10T05:28:41;100126.50;;;12.19;100.00
48624;BME280;34422;45.802;16.114;2023-05-10T05:31:10;100129.16;;;12.74;100.00
48624;BME280;34422;45.802;16.114;2023-05-10T05:33:37;100128.53;;;13.02;100.00
48624;BME280;34422;45.802;16.114;2023-05-10T05:36:04;100131.63;;;12.75;100.00
48624;BME280;34422;45.802;16.114;2023-05-10T05:38:32;100126.72;;;12.84;100.00
48624;BME280;34422;45.802;16.114;2023-05-10T05:40:58;100137.44;;;12.79;100.00
48624;BME280;34422;45.802;16.114;2023-05-10T05:43:25;100137.25;;;13.22;100.00
48624;BME280;34422;45.802;16.114;2023-05-10T05:45:52;100150.09;;;13.80;100.00
48624;BME280;34422;45.802;16.114;2023-05-10T05:48:20;100143.56;;;13.69;100.00
48624;BME280;34422;45.802;16.114;2023-05-10T05:50:47;100140.50;;;14.01;100.00
48624;BME280;34422;45.802;16.114;2023-05-10T05:53:14;100139.63;;;14.47;100.00
48624;BME280;34422;45.802;16.114;2023-05-10T05:55:50;100135.41;;;14.68;100.00
48624;BME280;34422;45.802;16.114;2023-05-10T05:58:17;100137.16;;;15.02;100.00
48624;BME280;34422;45.802;16.114;2023-05-10T06:00:44;100133.19;;;15.55;100.00
48624;BME280;34422;45.802;16.114;2023-05-10T06:03:11;100134.03;;;15.94;99.17
48624;BME280;34422;45.802;16.114;2023-05-10T06:05:38;100116.16;;;16.03;93.22
48624;BME280;34422;45.802;16.114;2023-05-10T06:08:05;100134.53;;;15.91;92.61
48624;BME280;34422;45.802;16.114;2023-05-10T06:10:32;100128.44;;;16.44;87.69
48624;BME280;34422;45.802;16.114;2023-05-10T06:12:58;100141.84;;;16.24;89.80
48624;BME280;34422;45.802;16.114;2023-05-10T06:15:25;100144.22;;;16.81;86.71
48624;BME280;34422;45.802;16.114;2023-05-10T06:17:52;100142.22;;;16.32;88.44
48624;BME280;34422;45.802;16.114;2023-05-10T06:20:19;100149.84;;;15.92;92.50
48624;BME280;34422;45.802;16.114;2023-05-10T06:22:49;100150.88;;;15.69;96.54
48624;BME280;34422;45.802;16.114;2023-05-10T06:25:16;100142.63;;;15.36;99.42
48624;BME280;34422;45.802;16.114;2023-05-10T06:27:45;100140.44;;;15.04;100.00
48624;BME280;34422;45.802;16.114;2023-05-10T06:30:14;100143.88;;;14.83;100.00
48624;BME280;34422;45.802;16.114;2023-05-10T06:32:41;100144.88;;;15.39;100.00
48624;BME280;34422;45.802;16.114;2023-05-10T06:35:10;100146.69;;;15.16;100.00
48624;BME280;34422;45.802;16.114;2023-05-10T06:37:37;100151.75;;;15.41;100.00
48624;BME280;34422;45.802;16.114;2023-05-10T06:40:05;100149.09;;;15.29;100.00
48624;BME280;34422;45.802;16.114;2023-05-10T06:42:31;100144.22;;;15.48;100.00
48624;BME280;34422;45.802;16.114;2023-05-10T06:45:01;100146.63;;;15.78;100.00
48624;BME280;34422;45.802;16.114;2023-05-10T06:47:28;100147.94;;;15.76;100.00
48624;BME280;34422;45.802;16.114;2023-05-10T06:49:55;100150.16;;;16.34;97.29
48624;BME280;34422;45.802;16.114;2023-05-10T06:52:22;100145.28;;;16.36;93.61
48624;BME280;34422;45.802;16.114;2023-05-10T06:54:49;100151.31;;;16.82;93.22
48624;BME280;34422;45.802;16.114;2023-05-10T06:57:16;100147.88;;;16.48;91.28
48624;BME280;34422;45.802;16.114;2023-05-10T06:59:44;100148.25;;;16.56;92.45
48624;BME280;34422;45.802;16.114;2023-05-10T07:02:11;100151.81;;;16.35;95.14
48624;BME280;34422;45.802;16.114;2023-05-10T07:04:37;100152.88;;;16.34;95.11
48624;BME280;34422;45.802;16.114;2023-05-10T07:07:04;100147.56;;;16.22;96.96
48624;BME280;34422;45.802;16.114;2023-05-10T07:09:31;100150.41;;;16.54;100.00
48624;BME280;34422;45.802;16.114;2023-05-10T07:11:58;100149.94;;;17.38;86.63
48624;BME280;34422;45.802;16.114;2023-05-10T07:14:25;100146.75;;;17.46;83.89
48624;BME280;34422;45.802;16.114;2023-05-10T07:16:52;100148.28;;;17.05;85.85
48624;BME280;34422;45.802;16.114;2023-05-10T07:19:19;100146.09;;;16.58;91.14
48624;BME280;34422;45.802;16.114;2023-05-10T07:21:50;100133.78;;;17.63;87.71
48624;BME280;34422;45.802;16.114;2023-05-10T07:24:18;100139.97;;;17.54;83.99
48624;BME280;34422;45.802;16.114;2023-05-10T07:26:45;100127.84;;;17.13;85.89
48624;BME280;34422;45.802;16.114;2023-05-10T07:29:12;100139.03;;;18.64;78.38
48624;BME280;34422;45.802;16.114;2023-05-10T07:31:39;100134.13;;;18.19;79.25
48624;BME280;34422;45.802;16.114;2023-05-10T07:34:08;100136.72;;;18.41;79.25
48624;BME280;34422;45.802;16.114;2023-05-10T07:36:35;100130.84;;;18.69;74.13
48624;BME280;34422;45.802;16.114;2023-05-10T07:39:02;100124.97;;;18.51;76.07
48624;BME280;34422;45.802;16.114;2023-05-10T07:41:29;100129.00;;;19.05;70.91
48624;BME280;34422;45.802;16.114;2023-05-10T07:43:56;100133.63;;;18.85;71.90
48624;BME280;34422;45.802;16.114;2023-05-10T07:46:23;100142.47;;;19.12;69.83
48624;BME280;34422;45.802;16.114;2023-05-10T07:48:49;100136.47;;;19.61;67.36
48624;BME280;34422;45.802;16.114;2023-05-10T07:51:16;100143.28;;;19.12;69.49
48624;BME280;34422;45.802;16.114;2023-05-10T07:53:43;100134.66;;;18.63;72.61
48624;BME280;34422;45.802;16.114;2023-05-10T07:56:24;100136.59;;;18.68;75.22
48624;BME280;34422;45.802;16.114;2023-05-10T07:58:54;100135.41;;;19.51;70.19
48624;BME280;34422;45.802;16.114;2023-05-10T08:01:21;100132.09;;;19.60;65.64
48624;BME280;34422;45.802;16.114;2023-05-10T08:03:48;100129.34;;;19.65;68.01
48624;BME280;34422;45.802;16.114;2023-05-10T08:06:17;100121.31;;;18.92;66.99
48624;BME280;34422;45.802;16.114;2023-05-10T08:08:45;100130.38;;;19.08;69.46
48624;BME280;34422;45.802;16.114;2023-05-10T08:11:41;100124.91;;;19.28;70.01
48624;BME280;34422;45.802;16.114;2023-05-10T08:14:08;100121.06;;;18.99;69.32
48624;BME280;34422;45.802;16.114;2023-05-10T08:16:35;100135.19;;;20.53;64.07
48624;BME280;34422;45.802;16.114;2023-05-10T08:19:02;100129.75;;;20.38;61.92
48624;BME280;34422;45.802;16.114;2023-05-10T08:21:29;100142.50;;;19.47;64.38
48624;BME280;34422;45.802;16.114;2023-05-10T08:23:57;100135.31;;;19.16;66.03
48624;BME280;34422;45.802;16.114;2023-05-10T08:26:24;100136.16;;;19.16;68.09
48624;BME280;34422;45.802;16.114;2023-05-10T08:28:51;100135.34;;;19.31;68.56
48624;BME280;34422;45.802;16.114;2023-05-10T08:31:18;100131.78;;;19.41;67.96
48624;BME280;34422;45.802;16.114;2023-05-10T08:33:45;100137.78;;;19.28;66.98
48624;BME280;34422;45.802;16.114;2023-05-10T08:36:12;100134.75;;;19.14;68.57
48624;BME280;34422;45.802;16.114;2023-05-10T08:38:40;100130.94;;;19.15;68.39
48624;BME280;34422;45.802;16.114;2023-05-10T08:41:07;100132.03;;;18.99;71.04
48624;BME280;34422;45.802;16.114;2023-05-10T08:43:35;100141.34;;;19.03;68.02
48624;BME280;34422;45.802;16.114;2023-05-10T08:46:05;100135.63;;;19.45;65.40
48624;BME280;34422;45.802;16.114;2023-05-10T08:48:33;100137.59;;;19.49;66.03
48624;BME280;34422;45.802;16.114;2023-05-10T08:51:02;100140.22;;;18.84;66.93
48624;BME280;34422;45.802;16.114;2023-05-10T08:53:42;100144.59;;;18.85;67.60
48624;BME280;34422;45.802;16.114;2023-05-10T08:56:23;100133.63;;;19.00;65.77
48624;BME280;34422;45.802;16.114;2023-05-10T08:58:51;100135.53;;;18.89;68.02
48624;BME280;34422;45.802;16.114;2023-05-10T09:01:18;100136.75;;;19.59;65.08
48624;BME280;34422;45.802;16.114;2023-05-10T09:03:46;100135.38;;;19.77;62.63
48624;BME280;34422;45.802;16.114;2023-05-10T09:06:14;100130.97;;;19.56;64.09
48624;BME280;34422;45.802;16.114;2023-05-10T09:08:42;100130.44;;;19.59;63.50
48624;BME280;34422;45.802;16.114;2023-05-10T09:11:12;100142.44;;;19.02;65.53
48624;BME280;34422;45.802;16.114;2023-05-10T09:13:39;100141.72;;;19.52;65.60
48624;BME280;34422;45.802;16.114;2023-05-10T09:16:06;100131.56;;;19.68;64.23
48624;BME280;34422;45.802;16.114;2023-05-10T09:18:32;100138.13;;;19.67;62.10
48624;BME280;34422;45.802;16.114;2023-05-10T09:20:59;100136.72;;;19.24;62.71
48624;BME280;34422;45.802;16.114;2023-05-10T09:23:26;100130.69;;;19.32;62.91
48624;BME280;34422;45.802;16.114;2023-05-10T09:26:04;100144.09;;;19.18;65.07
48624;BME280;34422;45.802;16.114;2023-05-10T09:28:51;100138.06;;;19.06;64.73
48624;BME280;34422;45.802;16.114;2023-05-10T09:31:19;100143.31;;;19.23;64.16
48624;BME280;34422;45.802;16.114;2023-05-10T09:33:48;100127.66;;;19.23;62.83
48624;BME280;34422;45.802;16.114;2023-05-10T09:36:15;100136.19;;;19.37;62.05
48624;BME280;34422;45.802;16.114;2023-05-10T09:38:46;100133.09;;;19.03;63.85
48624;BME280;34422;45.802;16.114;2023-05-10T09:41:22;100143.53;;;19.01;63.40
48624;BME280;34422;45.802;16.114;2023-05-10T09:43:49;100129.50;;;18.87;64.86
48624;BME280;34422;45.802;16.114;2023-05-10T09:46:16;100135.81;;;18.88;65.00
48624;BME280;34422;45.802;16.114;2023-05-10T09:48:45;100127.84;;;18.86;63.39
48624;BME280;34422;45.802;16.114;2023-05-10T09:51:24;100133.59;;;18.79;61.31
48624;BME280;34422;45.802;16.114;2023-05-10T09:54:10;100131.97;;;18.78;63.80
48624;BME280;34422;45.802;16.114;2023-05-10T09:56:38;100126.97;;;18.65;63.24
48624;BME280;34422;45.802;16.114;2023-05-10T09:59:10;100137.72;;;18.72;64.81
48624;BME280;34422;45.802;16.114;2023-05-10T10:01:38;100130.22;;;18.57;64.23
48624;BME280;34422;45.802;16.114;2023-05-10T10:04:06;100128.94;;;18.70;65.14
48624;BME280;34422;45.802;16.114;2023-05-10T10:06:40;100129.00;;;19.05;62.25
48624;BME280;34422;45.802;16.114;2023-05-10T10:09:07;100135.34;;;19.21;59.53
48624;BME280;34422;45.802;16.114;2023-05-10T10:11:38;100127.91;;;19.06;58.58
48624;BME280;34422;45.802;16.114;2023-05-10T10:14:05;100133.91;;;18.93;61.53
48624;BME280;34422;45.802;16.114;2023-05-10T10:16:32;100135.28;;;18.91;62.22
48624;BME280;34422;45.802;16.114;2023-05-10T10:19:00;100135.25;;;18.70;65.30
48624;BME280;34422;45.802;16.114;2023-05-10T10:21:27;100132.78;;;18.79;62.32
48624;BME280;34422;45.802;16.114;2023-05-10T10:23:54;100121.31;;;18.25;59.02
48624;BME280;34422;45.802;16.114;2023-05-10T10:26:21;100132.50;;;18.75;58.66
48624;BME280;34422;45.802;16.114;2023-05-10T10:34:30;100119.44;;;19.74;53.48
48624;BME280;34422;45.802;16.114;2023-05-10T10:37:04;100113.38;;;19.82;54.44
48624;BME280;34422;45.802;16.114;2023-05-10T10:39:31;100107.91;;;19.92;55.68
48624;BME280;34422;45.802;16.114;2023-05-10T10:41:59;100113.63;;;20.01;56.48
48624;BME280;34422;45.802;16.114;2023-05-10T10:55:11;100106.69;;;20.23;55.19
48624;BME280;34422;45.802;16.114;2023-05-10T10:57:50;100109.53;;;19.83;56.78
48624;BME280;34422;45.802;16.114;2023-05-10T11:00:30;100103.94;;;20.23;56.38
48624;BME280;34422;45.802;16.114;2023-05-10T11:05:38;100097.50;;;19.79;57.42
48624;BME280;34422;45.802;16.114;2023-05-10T11:08:19;100094.19;;;19.77;57.19
48624;BME280;34422;45.802;16.114;2023-05-10T11:14:03;100093.56;;;20.00;56.64
48624;BME280;34422;45.802;16.114;2023-05-10T11:16:40;100094.38;;;20.11;55.98
48624;BME280;34422;45.802;16.114;2023-05-10T11:19:12;100093.50;;;20.31;57.94
48624;BME280;34422;45.802;16.114;2023-05-10T11:21:50;100085.69;;;19.48;57.37
48624;BME280;34422;45.802;16.114;2023-05-10T11:24:20;100088.16;;;18.99;59.00
48624;BME280;34422;45.802;16.114;2023-05-10T11:26:49;100098.31;;;19.34;61.04
48624;BME280;34422;45.802;16.114;2023-05-10T11:29:16;100087.59;;;19.73;58.07
48624;BME280;34422;45.802;16.114;2023-05-10T11:31:44;100081.00;;;18.98;60.05
48624;BME280;34422;45.802;16.114;2023-05-10T11:34:23;100085.97;;;19.67;58.51
48624;BME280;34422;45.802;16.114;2023-05-10T11:36:55;100082.63;;;19.90;55.92
48624;BME280;34422;45.802;16.114;2023-05-10T11:39:26;100085.09;;;19.92;56.13
48624;BME280;34422;45.802;16.114;2023-05-10T11:41:54;100090.66;;;19.51;56.66
48624;BME280;34422;45.802;16.114;2023-05-10T11:44:21;100085.88;;;19.97;55.12
48624;BME280;34422;45.802;16.114;2023-05-10T11:46:48;100085.94;;;19.72;57.41
48624;BME280;34422;45.802;16.114;2023-05-10T11:49:15;100083.75;;;19.43;59.44
48624;BME280;34422;45.802;16.114;2023-05-10T11:51:42;100082.13;;;19.78;56.47
48624;BME280;34422;45.802;16.114;2023-05-10T11:54:10;100069.41;;;19.97;57.56
48624;BME280;34422;45.802;16.114;2023-05-10T11:56:40;100081.66;;;20.30;53.25
48624;BME280;34422;45.802;16.114;2023-05-10T11:59:07;100083.69;;;20.04;54.29
48624;BME280;34422;45.802;16.114;2023-05-10T12:01:35;100062.81;;;20.08;53.67
48624;BME280;34422;45.802;16.114;2023-05-10T12:04:02;100064.53;;;19.69;54.62
48624;BME280;34422;45.802;16.114;2023-05-10T12:06:31;100070.81;;;19.90;55.19
48624;BME280;34422;45.802;16.114;2023-05-10T12:08:58;100068.41;;;19.58;55.08
48624;BME280;34422;45.802;16.114;2023-05-10T12:11:27;100059.63;;;19.35;52.40
48624;BME280;34422;45.802;16.114;2023-05-10T12:13:55;100074.47;;;19.49;52.77
48624;BME280;34422;45.802;16.114;2023-05-10T12:16:24;100072.25;;;19.46;52.90
48624;BME280;34422;45.802;16.114;2023-05-10T12:18:53;100073.31;;;19.15;53.71
48624;BME280;34422;45.802;16.114;2023-05-10T12:21:21;100068.13;;;19.13;53.76
48624;BME280;34422;45.802;16.114;2023-05-10T12:23:53;100070.91;;;19.49;53.10
48624;BME280;34422;45.802;16.114;2023-05-10T12:26:24;100063.88;;;20.12;53.29
48624;BME280;34422;45.802;16.114;2023-05-10T12:28:53;100062.59;;;19.95;53.44
48624;BME280;34422;45.802;16.114;2023-05-10T12:31:20;100065.03;;;19.96;53.25
48624;BME280;34422;45.802;16.114;2023-05-10T12:33:47;100072.69;;;20.04;55.13
48624;BME280;34422;45.802;16.114;2023-05-10T12:36:16;100062.66;;;19.54;54.79
48624;BME280;34422;45.802;16.114;2023-05-10T12:38:44;100055.78;;;19.46;52.88
48624;BME280;34422;45.802;16.114;2023-05-10T12:41:17;100057.47;;;19.52;52.94
48624;BME280;34422;45.802;16.114;2023-05-10T12:43:45;100057.97;;;19.65;53.12
48624;BME280;34422;45.802;16.114;2023-05-10T12:46:17;100056.31;;;19.74;54.06
48624;BME280;34422;45.802;16.114;2023-05-10T12:48:44;100053.56;;;19.74;52.05
48624;BME280;34422;45.802;16.114;2023-05-10T12:51:12;100059.28;;;19.82;53.40
48624;BME280;34422;45.802;16.114;2023-05-10T12:53:42;100050.78;;;19.94;54.35
48624;BME280;34422;45.802;16.114;2023-05-10T12:56:09;100050.22;;;19.87;55.22
48624;BME280;34422;45.802;16.114;2023-05-10T12:58:36;100047.09;;;20.19;53.47
48624;BME280;34422;45.802;16.114;2023-05-10T13:01:02;100051.22;;;20.16;54.42
48624;BME280;34422;45.802;16.114;2023-05-10T13:03:30;100044.19;;;19.90;53.67
48624;BME280;34422;45.802;16.114;2023-05-10T13:05:57;100047.72;;;19.96;53.16
48624;BME280;34422;45.802;16.114;2023-05-10T13:08:24;100041.94;;;20.02;52.07
48624;BME280;34422;45.802;16.114;2023-05-10T13:10:51;100032.09;;;19.91;52.95
48624;BME280;34422;45.802;16.114;2023-05-10T13:13:18;100037.56;;;19.96;52.81
48624;BME280;34422;45.802;16.114;2023-05-10T13:15:45;100017.91;;;19.64;54.49
48624;BME280;34422;45.802;16.114;2023-05-10T13:18:12;100033.31;;;19.49;54.23
48624;BME280;34422;45.802;16.114;2023-05-10T13:20:38;100014.63;;;19.62;55.02